createdAt,value
2023-07-08T00:02:18.591Z,21.40
2023-07-08T00:04:46.567Z,21.40
2023-07-08T00:07:17.840Z,21.40
2023-07-08T00:09:47.160Z,21.50
2023-07-08T00:12:15.158Z,21.40
2023-07-08T00:14:43.168Z,21.40
2023-07-08T00:17:14.392Z,21.30
2023-07-08T00:19:42.468Z,21.40
2023-07-08T00:22:14.146Z,21.30
2023-07-08T00:24:43.292Z,21.20
2023-07-08T00:27:15.175Z,21.20
2023-07-08T00:29:43.236Z,21.30
2023-07-08T00:32:14.794Z,21.30
2023-07-08T00:34:43.226Z,21.20
2023-07-08T00:37:13.895Z,21.20
2023-07-08T00:39:42.511Z,21.30
2023-07-08T00:42:18.844Z,21.30
2023-07-08T00:44:46.977Z,21.30
2023-07-08T00:47:17.148Z,21.40
2023-07-08T00:49:49.458Z,21.20
2023-07-08T00:52:23.910Z,21.30
2023-07-08T00:54:53.474Z,21.20
2023-07-08T00:57:24.526Z,21.20
2023-07-08T00:59:57.161Z,21.20
2023-07-08T01:02:28.614Z,21.30
2023-07-08T01:05:03.727Z,21.30
2023-07-08T01:07:34.204Z,21.30
2023-07-08T01:10:05.907Z,21.30
2023-07-08T01:12:38.917Z,21.20
2023-07-08T01:15:08.848Z,21.30
2023-07-08T01:17:37.082Z,21.40
2023-07-08T01:20:07.812Z,21.40
2023-07-08T01:22:39.248Z,21.20
2023-07-08T01:25:09.482Z,21.00
2023-07-08T01:27:42.043Z,20.90
2023-07-08T01:30:12.327Z,21.10
2023-07-08T01:32:45.355Z,21.00
2023-07-08T01:35:14.663Z,20.90
2023-07-08T01:37:48.718Z,20.90
2023-07-08T01:40:27.626Z,20.90
2023-07-08T01:42:56.249Z,20.90
2023-07-08T01:45:26.707Z,20.90
2023-07-08T01:47:58.702Z,20.90
2023-07-08T01:50:28.211Z,20.90
2023-07-08T01:53:01.238Z,20.90
2023-07-08T01:55:31.447Z,20.90
2023-07-08T01:57:59.972Z,20.80
2023-07-08T02:00:27.905Z,20.80
2023-07-08T02:02:56.018Z,20.80
2023-07-08T02:05:25.083Z,20.80
2023-07-08T02:07:53.103Z,20.80
2023-07-08T02:10:22.562Z,20.80
2023-07-08T02:12:50.578Z,20.80
2023-07-08T02:15:19.032Z,20.80
2023-07-08T02:17:47.021Z,20.80
2023-07-08T02:20:15.118Z,20.90
2023-07-08T02:22:43.112Z,20.90
2023-07-08T02:25:11.385Z,20.80
2023-07-08T02:27:41.268Z,20.80
2023-07-08T02:30:10.111Z,20.80
2023-07-08T02:32:40.196Z,20.80
2023-07-08T02:35:09.372Z,20.80
2023-07-08T02:37:37.429Z,20.90
2023-07-08T02:40:05.850Z,20.70
2023-07-08T02:42:33.780Z,20.70
2023-07-08T02:45:03.393Z,20.70
2023-07-08T02:47:31.314Z,20.60
2023-07-08T02:49:59.694Z,20.60
2023-07-08T02:52:27.686Z,20.70
2023-07-08T02:54:55.595Z,20.70
2023-07-08T02:57:23.710Z,20.70
2023-07-08T02:59:51.811Z,20.80
2023-07-08T03:02:21.185Z,20.70
2023-07-08T03:04:50.968Z,20.70
2023-07-08T03:07:19.543Z,20.70
2023-07-08T03:09:47.591Z,20.70
2023-07-08T03:12:15.579Z,20.50
2023-07-08T03:14:43.510Z,20.60
2023-07-08T03:17:11.622Z,20.60
2023-07-08T03:19:41.137Z,20.50
2023-07-08T03:22:09.042Z,20.30
2023-07-08T03:24:37.527Z,20.20
2023-07-08T03:27:08.938Z,20.30
2023-07-08T03:29:38.211Z,20.30
2023-07-08T03:32:07.571Z,20.10
2023-07-08T03:34:35.623Z,20.00
2023-07-08T03:37:05.577Z,20.00
2023-07-08T03:39:33.944Z,19.80
2023-07-08T03:42:02.579Z,19.70
2023-07-08T03:44:30.603Z,19.80
2023-07-08T03:46:59.067Z,19.80
2023-07-08T03:49:27.596Z,19.90
2023-07-08T03:51:56.547Z,19.70
2023-07-08T03:54:27.423Z,19.80
2023-07-08T03:56:55.543Z,19.90
2023-07-08T03:59:23.469Z,19.80
2023-07-08T04:01:51.590Z,19.70
2023-07-08T04:04:19.814Z,19.80
2023-07-08T04:06:48.059Z,20.00
2023-07-08T04:09:16.105Z,20.00
2023-07-08T04:11:45.629Z,20.10
2023-07-08T04:14:14.702Z,20.20
2023-07-08T04:16:50.715Z,20.00
2023-07-08T04:19:19.068Z,20.00
2023-07-08T04:21:47.740Z,20.00
2023-07-08T04:24:17.664Z,20.00
2023-07-08T04:26:49.939Z,20.00
2023-07-08T04:29:20.248Z,20.30
2023-07-08T04:31:48.195Z,20.40
2023-07-08T04:34:17.633Z,20.40
2023-07-08T04:36:46.543Z,20.50
2023-07-08T04:39:15.385Z,20.40
2023-07-08T04:41:44.900Z,20.50
2023-07-08T04:44:14.881Z,20.50
2023-07-08T04:46:52.267Z,20.60
2023-07-08T04:49:20.781Z,20.60
2023-07-08T04:51:49.372Z,20.60
2023-07-08T04:54:17.481Z,20.70
2023-07-08T04:56:48.235Z,20.80
2023-07-08T04:59:19.970Z,20.80
2023-07-08T05:01:49.967Z,20.80
2023-07-08T05:04:19.958Z,20.80
2023-07-08T05:06:48.455Z,20.80
2023-07-08T05:09:17.712Z,20.80
2023-07-08T05:11:46.416Z,20.80
2023-07-08T05:14:15.265Z,20.80
2023-07-08T05:16:44.575Z,20.80
2023-07-08T05:19:12.767Z,20.60
2023-07-08T05:21:40.784Z,20.60
2023-07-08T05:24:09.654Z,20.50
2023-07-08T05:26:37.849Z,20.60
2023-07-08T05:29:06.237Z,20.60
2023-07-08T05:34:09.041Z,20.50
2023-07-08T05:36:37.063Z,20.60
2023-07-08T05:39:05.337Z,20.60
2023-07-08T05:41:33.332Z,20.70
2023-07-08T05:44:01.487Z,20.80
2023-07-08T05:46:29.660Z,20.70
2023-07-08T05:48:59.723Z,20.80
2023-07-08T05:51:31.494Z,20.80
2023-07-08T05:53:59.780Z,20.90
2023-07-08T05:56:27.774Z,21.00
2023-07-08T05:58:55.857Z,21.10
2023-07-08T06:01:23.986Z,21.30
2023-07-08T06:03:52.208Z,21.50
2023-07-08T06:06:20.578Z,21.60
2023-07-08T06:08:49.967Z,21.70
2023-07-08T06:11:18.282Z,21.80
2023-07-08T06:13:46.478Z,21.90
2023-07-08T06:16:18.227Z,22.00
2023-07-08T06:18:51.174Z,22.20
2023-07-08T06:21:19.318Z,22.30
2023-07-08T06:23:47.438Z,22.30
2023-07-08T06:26:16.913Z,22.40
2023-07-08T06:28:45.126Z,22.60
2023-07-08T06:31:13.105Z,22.60
2023-07-08T06:33:41.179Z,22.70
2023-07-08T06:36:09.182Z,22.80
2023-07-08T06:38:37.293Z,23.00
2023-07-08T06:41:05.247Z,23.20
2023-07-08T06:43:34.535Z,23.30
2023-07-08T06:46:02.663Z,23.40
2023-07-08T06:48:30.867Z,23.40
2023-07-08T06:50:59.318Z,23.70
2023-07-08T06:53:27.686Z,23.90
2023-07-08T06:55:55.782Z,24.00
2023-07-08T06:58:23.909Z,24.00
2023-07-08T07:00:53.537Z,24.20
2023-07-08T07:03:21.596Z,24.20
2023-07-08T07:05:49.498Z,24.20
2023-07-08T07:08:17.439Z,24.40
2023-07-08T07:10:45.632Z,24.50
2023-07-08T07:13:13.562Z,24.60
2023-07-08T07:15:41.990Z,24.50
2023-07-08T07:18:11.585Z,24.50
2023-07-08T07:20:40.215Z,24.70
2023-07-08T07:23:08.232Z,24.90
2023-07-08T07:25:37.354Z,25.10
2023-07-08T07:28:06.198Z,24.90
2023-07-08T07:30:34.438Z,25.20
2023-07-08T07:33:02.899Z,25.30
2023-07-08T07:35:32.454Z,25.30
2023-07-08T07:38:00.401Z,25.50
2023-07-08T07:40:28.470Z,25.50
2023-07-08T07:42:56.383Z,25.60
2023-07-08T07:45:24.469Z,25.60
2023-07-08T07:47:52.537Z,25.70
2023-07-08T07:50:20.798Z,25.70
2023-07-08T07:52:50.317Z,25.70
2023-07-08T07:55:18.580Z,25.60
2023-07-08T07:57:48.157Z,25.70
2023-07-08T08:00:16.934Z,25.80
2023-07-08T08:02:45.305Z,26.00
2023-07-08T08:05:13.260Z,26.10
2023-07-08T08:07:41.745Z,26.10
2023-07-08T08:10:11.802Z,26.30
2023-07-08T08:12:52.138Z,26.30
2023-07-08T08:15:22.463Z,26.30
2023-07-08T08:17:53.095Z,26.30
2023-07-08T08:20:22.708Z,26.30
2023-07-08T08:22:51.200Z,26.30
2023-07-08T08:25:23.266Z,26.40
2023-07-08T08:27:52.817Z,26.40
2023-07-08T08:30:21.376Z,26.50
2023-07-08T08:32:49.689Z,26.60
2023-07-08T08:35:17.939Z,26.80
2023-07-08T08:37:46.045Z,27.10
2023-07-08T08:40:19.749Z,27.50
2023-07-08T08:42:55.546Z,27.60
2023-07-08T08:45:26.721Z,27.70
2023-07-08T08:48:00.390Z,28.10
2023-07-08T08:50:32.551Z,28.30
2023-07-08T08:53:04.775Z,28.50
2023-07-08T08:55:33.415Z,28.80
2023-07-08T08:58:12.465Z,29.00
2023-07-08T09:00:49.617Z,28.90
2023-07-08T09:03:20.523Z,28.80
2023-07-08T09:05:49.613Z,28.60
2023-07-08T09:08:25.643Z,29.00
2023-07-08T09:11:02.281Z,29.00
2023-07-08T09:13:35.554Z,29.00
2023-07-08T09:16:09.612Z,29.10
2023-07-08T09:18:46.456Z,28.80
2023-07-08T09:21:21.683Z,28.90
2023-07-08T09:23:52.593Z,29.00
2023-07-08T09:26:24.831Z,29.10
2023-07-08T09:28:54.360Z,29.30
2023-07-08T09:31:26.399Z,29.30
2023-07-08T09:33:56.442Z,29.20
2023-07-08T09:36:26.733Z,29.10
2023-07-08T09:38:55.581Z,29.30
2023-07-08T09:41:35.327Z,29.60
2023-07-08T09:44:16.317Z,29.60
2023-07-08T09:46:45.053Z,29.50
2023-07-08T09:49:23.640Z,29.90
2023-07-08T09:51:52.557Z,30.40
2023-07-08T09:54:21.528Z,30.70
2023-07-08T09:57:00.326Z,31.30
2023-07-08T09:59:35.852Z,31.80
2023-07-08T10:02:18.731Z,32.30
2023-07-08T10:04:46.691Z,32.90
2023-07-08T10:07:19.145Z,33.70
2023-07-08T10:09:50.901Z,34.80
2023-07-08T10:12:19.497Z,35.30
2023-07-08T10:14:54.102Z,35.80
2023-07-08T10:17:23.735Z,36.50
2023-07-08T10:19:52.116Z,36.90
2023-07-08T10:22:37.293Z,37.60
2023-07-08T10:25:19.730Z,38.00
2023-07-08T10:27:54.803Z,37.90
2023-07-08T10:30:27.447Z,38.40
2023-07-08T10:33:22.501Z,38.70
2023-07-08T10:36:12.681Z,39.40
2023-07-08T10:38:57.804Z,40.40
2023-07-08T10:41:38.149Z,40.80
2023-07-08T10:44:14.662Z,41.10
2023-07-08T10:47:03.926Z,41.70
2023-07-08T10:49:43.294Z,42.40
2023-07-08T10:52:27.136Z,42.60
2023-07-08T10:55:07.689Z,41.70
2023-07-08T10:57:54.645Z,40.70
2023-07-08T11:00:30.581Z,40.40
2023-07-08T11:03:22.525Z,40.50
2023-07-08T11:05:58.888Z,40.90
2023-07-08T11:08:31.058Z,41.10
2023-07-08T11:11:14.842Z,41.60
2023-07-08T11:13:50.348Z,41.80
2023-07-08T11:16:26.511Z,41.20
2023-07-08T11:19:03.693Z,40.70
2023-07-08T11:21:37.706Z,39.50
2023-07-08T11:24:13.754Z,38.40
2023-07-08T11:26:48.381Z,37.40
2023-07-08T11:29:21.151Z,36.30
2023-07-08T11:31:51.025Z,35.50
2023-07-08T11:34:22.210Z,35.30
2023-07-08T11:36:51.309Z,34.80
2023-07-08T11:39:31.099Z,34.30
2023-07-08T11:42:13.692Z,33.90
2023-07-08T11:44:45.336Z,33.50
2023-07-08T11:47:18.994Z,33.40
2023-07-08T11:49:49.659Z,33.00
2023-07-08T11:52:21.162Z,32.70
2023-07-08T11:54:56.790Z,32.30
2023-07-08T11:57:32.104Z,32.20
2023-07-08T12:00:17.790Z,31.90
2023-07-08T12:02:56.230Z,31.80
2023-07-08T12:05:36.721Z,31.80
2023-07-08T12:08:13.653Z,31.60
2023-07-08T12:10:44.758Z,31.40
2023-07-08T12:13:16.784Z,31.30
2023-07-08T12:15:44.867Z,31.20
2023-07-08T12:18:17.416Z,31.30
2023-07-08T12:20:50.491Z,31.20
2023-07-08T12:23:22.995Z,31.10
2023-07-08T12:25:52.110Z,31.00
2023-07-08T12:28:21.361Z,31.00
2023-07-08T12:30:50.407Z,30.80
2023-07-08T12:33:24.218Z,30.90
2023-07-08T12:35:54.016Z,31.20
2023-07-08T12:38:29.404Z,31.40
2023-07-08T12:40:59.440Z,31.50
2023-07-08T12:43:28.519Z,31.70
2023-07-08T12:45:56.450Z,31.60
2023-07-08T12:48:24.939Z,31.50
2023-07-08T12:50:54.432Z,31.60
2023-07-08T12:53:22.381Z,31.70
2023-07-08T12:55:54.116Z,31.50
2023-07-08T12:58:28.565Z,31.40
2023-07-08T13:00:59.249Z,31.50
2023-07-08T13:03:31.578Z,31.60
2023-07-08T13:06:03.382Z,31.60
2023-07-08T13:08:40.063Z,31.40
2023-07-08T13:11:09.127Z,31.20
2023-07-08T13:13:40.564Z,31.10
2023-07-08T13:16:11.572Z,31.00
2023-07-08T13:18:42.285Z,31.10
2023-07-08T13:21:15.408Z,31.10
2023-07-08T13:23:43.985Z,31.00
2023-07-08T13:26:16.616Z,31.10
2023-07-08T13:28:46.395Z,31.20
2023-07-08T13:31:22.971Z,31.20
2023-07-08T13:33:54.565Z,31.10
2023-07-08T13:36:25.732Z,31.00
2023-07-08T13:38:54.255Z,31.00
2023-07-08T13:41:24.637Z,30.90
2023-07-08T13:43:53.043Z,30.90
2023-07-08T13:46:32.238Z,31.00
2023-07-08T13:49:04.623Z,30.90
2023-07-08T13:51:35.121Z,30.80
2023-07-08T13:54:11.179Z,30.90
2023-07-08T13:56:39.413Z,30.90
2023-07-08T13:59:09.014Z,30.70
2023-07-08T14:01:41.407Z,30.60
2023-07-08T14:04:11.873Z,30.50
2023-07-08T14:06:42.625Z,30.50
2023-07-08T14:09:16.412Z,30.40
2023-07-08T14:11:44.801Z,30.50
2023-07-08T14:14:13.207Z,30.40
2023-07-08T14:16:44.436Z,30.40
2023-07-08T14:19:17.922Z,30.40
2023-07-08T14:21:47.394Z,30.40
2023-07-08T14:24:16.918Z,30.50
2023-07-08T14:26:46.726Z,30.60
2023-07-08T14:29:15.582Z,30.70
2023-07-08T14:31:44.426Z,30.70
2023-07-08T14:34:19.203Z,30.70
2023-07-08T14:36:48.651Z,30.70
2023-07-08T14:39:18.200Z,30.70
2023-07-08T14:41:48.530Z,30.80
2023-07-08T14:44:23.369Z,30.90
2023-07-08T14:46:52.822Z,31.00
2023-07-08T14:49:22.798Z,31.10
2023-07-08T14:51:53.151Z,31.20
2023-07-08T14:54:22.126Z,31.30
2023-07-08T14:56:51.604Z,31.40
2023-07-08T14:59:23.129Z,31.40
2023-07-08T15:01:51.681Z,31.40
2023-07-08T15:04:20.386Z,31.40
2023-07-08T15:06:48.952Z,31.50
2023-07-08T15:09:19.198Z,31.40
2023-07-08T15:11:48.838Z,31.40
2023-07-08T15:14:21.962Z,31.30
2023-07-08T15:16:51.351Z,31.30
2023-07-08T15:19:19.897Z,31.30
2023-07-08T15:21:48.722Z,31.40
2023-07-08T15:24:18.664Z,31.40
2023-07-08T15:26:48.908Z,31.40
2023-07-08T15:29:19.387Z,31.40
2023-07-08T15:31:47.526Z,31.30
2023-07-08T15:34:16.868Z,31.30
2023-07-08T15:36:44.803Z,31.30
2023-07-08T15:39:14.550Z,31.40
2023-07-08T15:41:45.105Z,31.40
2023-07-08T15:44:14.269Z,31.40
2023-07-08T15:46:43.920Z,31.30
2023-07-08T15:49:16.698Z,31.40
2023-07-08T15:51:47.574Z,31.40
2023-07-08T15:54:17.552Z,31.40
2023-07-08T15:56:48.064Z,31.30
2023-07-08T15:59:19.997Z,31.20
2023-07-08T16:01:47.972Z,31.20
2023-07-08T16:04:24.919Z,31.00
2023-07-08T16:06:53.314Z,30.90
2023-07-08T16:09:21.430Z,30.80
2023-07-08T16:11:50.950Z,30.60
2023-07-08T16:14:20.369Z,30.60
2023-07-08T16:16:48.429Z,30.50
2023-07-08T16:19:17.031Z,30.50
2023-07-08T16:21:47.078Z,30.40
2023-07-08T16:24:15.096Z,30.40
2023-07-08T16:26:43.383Z,30.30
2023-07-08T16:29:18.056Z,30.30
2023-07-08T16:31:46.116Z,30.20
2023-07-08T16:34:15.736Z,30.20
2023-07-08T16:36:43.689Z,30.20
2023-07-08T16:39:11.670Z,30.10
2023-07-08T16:41:39.997Z,30.10
2023-07-08T16:44:17.085Z,30.10
2023-07-08T16:46:45.380Z,30.00
2023-07-08T16:49:13.687Z,30.00
2023-07-08T16:51:41.739Z,30.00
2023-07-08T16:54:15.533Z,29.90
2023-07-08T16:56:43.809Z,29.90
2023-07-08T16:59:13.055Z,29.90
2023-07-08T17:01:42.553Z,30.00
2023-07-08T17:04:13.571Z,30.00
2023-07-08T17:06:41.927Z,30.00
2023-07-08T17:09:12.410Z,30.00
2023-07-08T17:11:40.551Z,30.00
2023-07-08T17:14:10.218Z,30.00
2023-07-08T17:16:39.640Z,30.10
2023-07-08T17:19:11.984Z,30.10
2023-07-08T17:21:40.027Z,30.20
2023-07-08T17:24:11.624Z,30.30
2023-07-08T17:26:39.758Z,30.10
2023-07-08T17:29:07.610Z,30.10
2023-07-08T17:31:47.212Z,30.00
2023-07-08T17:34:22.292Z,30.00
2023-07-08T17:36:50.928Z,30.10
2023-07-08T17:39:19.058Z,30.00
2023-07-08T17:41:50.466Z,29.90
2023-07-08T17:44:18.762Z,29.80
2023-07-08T17:46:47.310Z,29.80
2023-07-08T17:49:16.563Z,29.80
2023-07-08T17:51:45.866Z,29.70
2023-07-08T17:54:15.940Z,29.70
2023-07-08T17:56:48.554Z,29.60
2023-07-08T17:59:19.204Z,29.50
2023-07-08T18:01:47.629Z,29.50
2023-07-08T18:04:15.614Z,29.40
2023-07-08T18:06:47.606Z,29.40
2023-07-08T18:09:15.571Z,29.30
2023-07-08T18:11:46.436Z,29.30
2023-07-08T18:14:15.436Z,29.20
2023-07-08T18:16:45.097Z,29.20
2023-07-08T18:21:57.710Z,29.10
2023-07-08T18:24:25.671Z,29.00
2023-07-08T18:26:53.600Z,29.00
2023-07-08T18:29:22.774Z,28.90
2023-07-08T18:31:51.017Z,28.90
2023-07-08T18:34:21.788Z,28.80
2023-07-08T18:36:49.749Z,28.80
2023-07-08T18:39:20.162Z,28.70
2023-07-08T18:41:49.530Z,28.70
2023-07-08T18:44:26.815Z,28.60
2023-07-08T18:46:55.516Z,28.60
2023-07-08T18:49:25.616Z,28.50
2023-07-08T18:51:54.146Z,28.40
2023-07-08T18:54:24.145Z,28.40
2023-07-08T18:56:52.139Z,28.40
2023-07-08T18:59:20.794Z,28.30
2023-07-08T19:01:50.921Z,28.20
2023-07-08T19:04:24.379Z,28.10
2023-07-08T19:06:52.405Z,28.10
2023-07-08T19:09:20.554Z,28.10
2023-07-08T19:11:50.149Z,28.00
2023-07-08T19:14:19.324Z,28.00
2023-07-08T19:16:47.959Z,27.90
2023-07-08T19:19:17.918Z,27.80
2023-07-08T19:21:46.642Z,27.80
2023-07-08T19:24:32.012Z,27.70
2023-07-08T19:27:06.582Z,27.60
2023-07-08T19:29:34.499Z,27.60
2023-07-08T19:32:02.661Z,27.50
2023-07-08T19:34:32.791Z,27.50
2023-07-08T19:37:00.916Z,27.50
2023-07-08T19:39:28.787Z,27.40
2023-07-08T19:41:56.951Z,27.40
2023-07-08T19:44:27.658Z,27.30
2023-07-08T19:46:56.880Z,27.20
2023-07-08T19:49:25.456Z,27.20
2023-07-08T19:51:53.664Z,27.10
2023-07-08T19:54:22.577Z,27.10
2023-07-08T19:56:50.811Z,27.00
2023-07-08T19:59:19.249Z,26.90
2023-07-08T20:01:48.746Z,26.90
2023-07-08T20:04:17.956Z,26.80
2023-07-08T20:06:46.828Z,26.70
2023-07-08T20:09:16.275Z,26.70
2023-07-08T20:11:44.929Z,26.60
2023-07-08T20:14:13.401Z,26.60
2023-07-08T20:16:43.483Z,26.50
2023-07-08T20:19:21.038Z,26.50
2023-07-08T20:21:49.183Z,26.40
2023-07-08T20:24:17.170Z,26.40
2023-07-08T20:26:45.832Z,26.40
2023-07-08T20:29:18.235Z,26.40
2023-07-08T20:31:46.820Z,26.40
2023-07-08T20:34:18.896Z,26.30
2023-07-08T20:36:48.671Z,26.30
2023-07-08T20:39:22.480Z,26.30
2023-07-08T20:41:50.874Z,26.20
2023-07-08T20:44:20.078Z,26.20
2023-07-08T20:46:49.911Z,26.20
2023-07-08T20:49:19.214Z,26.20
2023-07-08T20:51:48.771Z,26.20
2023-07-08T20:54:16.698Z,26.10
2023-07-08T20:56:45.097Z,26.10
2023-07-08T20:59:17.921Z,26.10
2023-07-08T21:01:46.036Z,26.10
2023-07-08T21:04:14.103Z,26.10
2023-07-08T21:06:42.164Z,26.00
2023-07-08T21:09:14.688Z,26.00
2023-07-08T21:11:42.652Z,26.00
2023-07-08T21:14:10.794Z,26.00
2023-07-08T21:16:39.152Z,26.00
2023-07-08T21:19:07.203Z,26.00
2023-07-08T21:21:35.312Z,26.00
2023-07-08T21:24:03.484Z,26.00
2023-07-08T21:26:34.274Z,26.00
2023-07-08T21:29:04.089Z,26.00
2023-07-08T21:31:32.836Z,26.00
2023-07-08T21:34:00.873Z,25.90
2023-07-08T21:36:33.984Z,26.00
2023-07-08T21:39:05.095Z,25.80
2023-07-08T21:41:35.182Z,25.80
2023-07-08T21:44:03.313Z,25.70
2023-07-08T21:46:31.598Z,25.70
2023-07-08T21:49:00.210Z,25.70
2023-07-08T21:51:31.543Z,25.70
2023-07-08T21:54:00.259Z,25.60
2023-07-08T21:56:28.554Z,25.60
2023-07-08T21:58:58.014Z,25.50
2023-07-08T22:01:28.055Z,25.50
2023-07-08T22:03:57.386Z,25.50
2023-07-08T22:06:26.774Z,25.40
2023-07-08T22:08:55.794Z,25.40
2023-07-08T22:11:30.686Z,25.30
2023-07-08T22:14:00.873Z,25.30
2023-07-08T22:16:30.916Z,25.20
2023-07-08T22:18:59.630Z,25.20
2023-07-08T22:21:30.549Z,25.20
2023-07-08T22:23:59.515Z,25.10
2023-07-08T22:26:28.169Z,25.00
2023-07-08T22:28:56.378Z,24.90
2023-07-08T22:31:29.695Z,24.90
2023-07-08T22:33:58.088Z,24.90
2023-07-08T22:36:26.226Z,24.70
2023-07-08T22:39:01.783Z,24.70
2023-07-08T22:41:32.964Z,24.70
2023-07-08T22:44:01.044Z,24.70
2023-07-08T22:46:30.445Z,24.60
2023-07-08T22:49:01.583Z,24.60
2023-07-08T22:51:32.964Z,24.50
2023-07-08T22:54:01.097Z,24.40
2023-07-08T22:56:29.059Z,24.40
2023-07-08T22:58:56.938Z,24.40
2023-07-08T23:01:24.848Z,24.40
2023-07-08T23:03:54.139Z,24.30
2023-07-08T23:06:25.896Z,24.30
2023-07-08T23:08:54.074Z,24.20
2023-07-08T23:11:22.842Z,24.20
2023-07-08T23:13:51.304Z,24.20
2023-07-08T23:16:31.216Z,24.20
2023-07-08T23:19:02.538Z,24.10
2023-07-08T23:21:31.523Z,24.10
2023-07-08T23:23:59.726Z,24.10
2023-07-08T23:26:31.532Z,24.00
2023-07-08T23:29:01.005Z,23.90
2023-07-08T23:31:30.919Z,23.80
2023-07-08T23:34:01.230Z,23.70
2023-07-08T23:36:34.897Z,23.70
2023-07-08T23:39:06.672Z,23.70
2023-07-08T23:41:34.753Z,23.70
2023-07-08T23:44:02.828Z,23.60
2023-07-08T23:46:33.091Z,23.70
2023-07-08T23:49:05.828Z,23.70
2023-07-08T23:51:33.919Z,23.60
2023-07-08T23:54:01.866Z,23.60
2023-07-08T23:56:34.552Z,23.60
2023-07-08T23:59:04.424Z,23.50
